createdAt,value
2023-07-08T00:01:14.842Z,94.10
2023-07-08T00:03:42.570Z,94.20
2023-07-08T00:06:29.338Z,94.30
2023-07-08T00:08:57.098Z,94.30
2023-07-08T00:11:24.763Z,94.50
2023-07-08T00:13:52.181Z,94.60
2023-07-08T00:16:20.606Z,94.70
2023-07-08T00:18:50.023Z,94.70
2023-07-08T00:21:18.771Z,94.80
2023-07-08T00:23:50.144Z,95.00
2023-07-08T00:26:27.963Z,95.10
2023-07-08T00:28:55.854Z,95.00
2023-07-08T00:31:25.800Z,95.20
2023-07-08T00:33:57.521Z,95.20
2023-07-08T00:36:27.974Z,95.50
2023-07-08T00:38:55.305Z,95.80
2023-07-08T00:41:33.620Z,95.50
2023-07-08T00:44:02.024Z,95.60
2023-07-08T00:46:30.690Z,96.20
2023-07-08T00:49:01.272Z,96.00
2023-07-08T00:51:28.348Z,96.00
2023-07-08T00:53:55.537Z,96.10
2023-07-08T00:56:25.660Z,96.10
2023-07-08T00:59:04.874Z,96.30
2023-07-08T01:01:36.348Z,96.40
2023-07-08T01:04:09.915Z,96.50
2023-07-08T01:06:42.218Z,96.70
2023-07-08T01:09:12.761Z,96.70
2023-07-08T01:11:42.019Z,96.80
2023-07-08T01:14:13.992Z,96.70
2023-07-08T01:16:41.578Z,96.90
2023-07-08T01:19:15.568Z,97.00
2023-07-08T01:21:54.838Z,97.00
2023-07-08T01:24:22.183Z,97.00
2023-07-08T01:26:50.123Z,97.10
2023-07-08T01:29:17.426Z,97.10
2023-07-08T01:31:50.226Z,97.20
2023-07-08T01:34:18.271Z,97.20
2023-07-08T01:36:55.923Z,97.50
2023-07-08T01:39:25.011Z,97.60
2023-07-08T01:41:52.741Z,97.70
2023-07-08T01:44:36.319Z,97.80
2023-07-08T01:47:24.162Z,97.80
2023-07-08T01:49:51.496Z,97.90
2023-07-08T01:52:19.678Z,98.00
2023-07-08T01:54:46.897Z,98.10
2023-07-08T01:57:14.260Z,98.00
2023-07-08T01:59:41.470Z,98.20
2023-07-08T02:02:08.781Z,98.40
2023-07-08T02:04:36.171Z,98.50
2023-07-08T02:07:03.544Z,98.30
2023-07-08T02:09:31.913Z,98.40
2023-07-08T02:11:59.182Z,98.50
2023-07-08T02:14:27.941Z,98.50
2023-07-08T02:16:55.429Z,98.50
2023-07-08T02:19:23.502Z,98.70
2023-07-08T02:21:50.810Z,98.70
2023-07-08T02:24:18.365Z,98.70
2023-07-08T02:26:48.461Z,98.70
2023-07-08T02:29:15.922Z,98.60
2023-07-08T02:31:43.253Z,98.60
2023-07-08T02:34:10.543Z,98.60
2023-07-08T02:36:39.907Z,98.80
2023-07-08T02:39:07.440Z,98.80
2023-07-08T02:41:34.821Z,98.90
2023-07-08T02:44:02.229Z,98.90
2023-07-08T02:46:29.887Z,98.80
2023-07-08T02:48:57.167Z,98.80
2023-07-08T02:51:24.441Z,98.80
2023-07-08T02:53:51.945Z,98.80
2023-07-08T02:56:19.227Z,98.80
2023-07-08T02:58:46.557Z,98.80
2023-07-08T03:01:19.304Z,98.80
2023-07-08T03:03:48.085Z,98.80
2023-07-08T03:06:15.600Z,98.80
2023-07-08T03:08:42.873Z,98.80
2023-07-08T03:11:14.131Z,98.70
2023-07-08T03:13:41.428Z,98.70
2023-07-08T03:16:13.984Z,98.70
2023-07-08T03:18:47.454Z,98.70
2023-07-08T03:21:17.445Z,98.50
2023-07-08T03:23:45.066Z,98.50
2023-07-08T03:26:21.864Z,98.50
2023-07-08T03:28:49.768Z,98.40
2023-07-08T03:31:18.025Z,98.40
2023-07-08T03:33:45.437Z,98.30
2023-07-08T03:36:27.821Z,98.20
2023-07-08T03:38:57.751Z,98.10
2023-07-08T03:41:25.305Z,98.10
2023-07-08T03:43:52.678Z,98.00
2023-07-08T03:46:22.567Z,97.80
2023-07-08T03:48:50.427Z,97.50
2023-07-08T03:51:28.919Z,97.60
2023-07-08T03:53:56.449Z,97.70
2023-07-08T03:56:23.744Z,97.50
2023-07-08T03:58:51.722Z,97.60
2023-07-08T04:01:24.813Z,97.50
2023-07-08T04:03:54.527Z,97.30
2023-07-08T04:06:21.843Z,97.40
2023-07-08T04:08:49.378Z,97.40
2023-07-08T04:11:22.300Z,97.40
2023-07-08T04:13:49.994Z,97.20
2023-07-08T04:16:21.331Z,97.50
2023-07-08T04:18:49.261Z,96.90
2023-07-08T04:23:48.749Z,97.50
2023-07-08T04:26:16.147Z,97.40
2023-07-08T04:28:44.167Z,97.60
2023-07-08T04:31:11.492Z,97.00
2023-07-08T04:33:38.759Z,97.20
2023-07-08T04:36:10.764Z,97.00
2023-07-08T04:38:38.026Z,96.90
2023-07-08T04:41:06.831Z,96.80
2023-07-08T04:43:34.165Z,96.90
2023-07-08T04:46:01.702Z,96.70
2023-07-08T04:48:28.940Z,96.60
2023-07-08T04:50:56.177Z,96.40
2023-07-08T04:53:23.447Z,96.20
2023-07-08T04:55:54.021Z,96.20
2023-07-08T04:58:21.311Z,96.10
2023-07-08T05:00:48.654Z,96.20
2023-07-08T05:03:16.072Z,96.10
2023-07-08T05:05:43.360Z,95.90
2023-07-08T05:08:10.651Z,95.60
2023-07-08T05:10:37.961Z,95.70
2023-07-08T05:13:06.347Z,95.70
2023-07-08T05:15:33.541Z,95.40
2023-07-08T05:18:01.321Z,95.40
2023-07-08T05:20:28.545Z,95.40
2023-07-08T05:22:55.753Z,95.60
2023-07-08T05:25:23.049Z,95.50
2023-07-08T05:27:50.244Z,95.50
2023-07-08T05:30:19.482Z,95.20
2023-07-08T05:32:47.145Z,94.40
2023-07-08T05:35:14.905Z,95.10
2023-07-08T05:37:45.818Z,94.60
2023-07-08T05:40:13.187Z,94.20
2023-07-08T05:42:40.388Z,94.80
2023-07-08T05:45:08.059Z,94.30
2023-07-08T05:47:35.409Z,94.00
2023-07-08T05:50:02.906Z,93.80
2023-07-08T05:52:30.185Z,93.20
2023-07-08T05:54:57.564Z,92.70
2023-07-08T05:57:24.843Z,92.70
2023-07-08T05:59:52.716Z,93.40
2023-07-08T06:02:23.002Z,92.10
2023-07-08T06:04:50.333Z,92.60
2023-07-08T06:07:18.109Z,93.60
2023-07-08T06:09:45.543Z,93.70
2023-07-08T06:12:13.462Z,92.00
2023-07-08T06:14:40.954Z,93.50
2023-07-08T06:17:08.443Z,93.30
2023-07-08T06:19:35.984Z,93.10
2023-07-08T06:22:29.453Z,92.50
2023-07-08T06:24:50.500Z,91.70
2023-07-08T06:27:17.798Z,91.00
2023-07-08T06:29:46.129Z,92.10
2023-07-08T06:32:13.396Z,91.80
2023-07-08T06:34:40.708Z,91.40
2023-07-08T06:37:08.048Z,90.10
2023-07-08T06:39:35.217Z,90.20
2023-07-08T06:42:02.447Z,90.80
2023-07-08T06:44:29.771Z,90.90
2023-07-08T06:46:56.992Z,90.00
2023-07-08T06:49:24.361Z,90.30
2023-07-08T06:51:51.489Z,90.60
2023-07-08T06:54:18.641Z,90.50
2023-07-08T06:56:45.830Z,90.00
2023-07-08T06:59:13.186Z,89.10
2023-07-08T07:01:40.367Z,88.70
2023-07-08T07:04:07.676Z,88.30
2023-07-08T07:06:35.076Z,86.80
2023-07-08T07:09:02.717Z,86.50
2023-07-08T07:11:30.227Z,88.00
2023-07-08T07:13:57.608Z,85.80
2023-07-08T07:16:25.032Z,83.80
2023-07-08T07:18:53.160Z,81.60
2023-07-08T07:21:20.795Z,84.40
2023-07-08T07:23:48.282Z,81.00
2023-07-08T07:26:15.625Z,80.90
2023-07-08T07:28:43.083Z,82.90
2023-07-08T07:31:12.457Z,85.60
2023-07-08T07:33:39.722Z,82.60
2023-07-08T07:36:07.203Z,80.80
2023-07-08T07:38:35.191Z,84.20
2023-07-08T07:41:07.432Z,83.90
2023-07-08T07:43:35.773Z,82.20
2023-07-08T07:46:04.254Z,82.70
2023-07-08T07:48:31.527Z,78.10
2023-07-08T07:50:58.855Z,78.40
2023-07-08T07:53:26.147Z,77.80
2023-07-08T07:56:01.382Z,81.90
2023-07-08T07:58:28.921Z,80.40
2023-07-08T08:00:56.157Z,77.90
2023-07-08T08:03:23.643Z,79.80
2023-07-08T08:05:51.023Z,76.90
2023-07-08T08:08:18.559Z,80.40
2023-07-08T08:10:46.076Z,79.70
2023-07-08T08:13:13.386Z,78.30
2023-07-08T08:15:41.032Z,79.50
2023-07-08T08:18:08.214Z,79.20
2023-07-08T08:20:35.476Z,76.20
2023-07-08T08:23:02.849Z,73.30
2023-07-08T08:25:30.041Z,73.40
2023-07-08T08:27:57.924Z,77.90
2023-07-08T08:30:25.148Z,73.90
2023-07-08T08:32:53.205Z,74.10
2023-07-08T08:35:20.469Z,75.30
2023-07-08T08:37:48.006Z,73.20
2023-07-08T08:40:21.672Z,71.50
2023-07-08T08:43:08.027Z,73.50
2023-07-08T08:45:42.601Z,70.60
2023-07-08T08:48:15.217Z,73.90
2023-07-08T08:50:53.681Z,73.30
2023-07-08T08:53:23.903Z,69.40
2023-07-08T08:56:06.556Z,67.70
2023-07-08T08:59:10.483Z,69.00
2023-07-08T09:01:38.236Z,70.00
2023-07-08T09:04:15.001Z,63.70
2023-07-08T09:06:42.627Z,65.00
2023-07-08T09:09:19.415Z,70.30
2023-07-08T09:12:06.460Z,70.30
2023-07-08T09:14:36.382Z,66.40
2023-07-08T09:17:19.371Z,68.40
2023-07-08T09:20:04.260Z,64.80
2023-07-08T09:22:46.031Z,63.40
2023-07-08T09:25:31.925Z,65.40
2023-07-08T09:28:02.701Z,64.80
2023-07-08T09:30:31.800Z,63.40
2023-07-08T09:33:03.837Z,65.40
2023-07-08T09:35:41.584Z,64.50
2023-07-08T09:38:10.974Z,64.00
2023-07-08T09:40:38.273Z,63.80
2023-07-08T09:43:17.470Z,63.30
2023-07-08T09:45:48.373Z,65.60
2023-07-08T09:48:23.389Z,64.80
2023-07-08T09:50:53.565Z,63.90
2023-07-08T09:53:21.405Z,63.20
2023-07-08T09:55:49.280Z,63.30
2023-07-08T09:58:35.837Z,60.90
2023-07-08T10:01:12.075Z,61.60
2023-07-08T10:03:42.686Z,61.70
2023-07-08T10:06:28.326Z,63.50
2023-07-08T10:08:59.027Z,62.40
2023-07-08T10:11:36.671Z,61.80
2023-07-08T10:14:14.527Z,63.40
2023-07-08T10:16:43.314Z,62.40
2023-07-08T10:19:19.126Z,62.20
2023-07-08T10:22:20.041Z,63.10
2023-07-08T10:25:15.636Z,62.70
2023-07-08T10:28:00.047Z,62.50
2023-07-08T10:30:32.908Z,62.30
2023-07-08T10:33:30.765Z,61.10
2023-07-08T10:35:57.969Z,60.10
2023-07-08T10:39:22.537Z,59.90
2023-07-08T10:42:11.187Z,60.40
2023-07-08T10:44:55.468Z,60.40
2023-07-08T10:47:56.659Z,60.90
2023-07-08T10:50:38.956Z,64.30
2023-07-08T10:53:24.687Z,63.20
2023-07-08T10:56:26.989Z,64.00
2023-07-08T10:59:18.689Z,61.20
2023-07-08T11:02:02.251Z,60.50
2023-07-08T11:04:42.048Z,60.80
2023-07-08T11:07:42.504Z,60.60
2023-07-08T11:10:16.618Z,58.60
2023-07-08T11:12:49.440Z,59.60
2023-07-08T11:15:38.822Z,59.70
2023-07-08T11:18:26.846Z,58.30
2023-07-08T11:21:09.165Z,58.30
2023-07-08T11:24:10.838Z,58.20
2023-07-08T11:26:47.411Z,57.70
2023-07-08T11:29:26.037Z,55.00
2023-07-08T11:31:55.562Z,58.00
2023-07-08T11:34:23.564Z,54.30
2023-07-08T11:36:52.783Z,56.70
2023-07-08T11:39:42.007Z,56.40
2023-07-08T11:42:21.137Z,66.10
2023-07-08T11:44:57.729Z,75.30
2023-07-08T11:47:37.348Z,80.70
2023-07-08T11:50:08.189Z,84.50
2023-07-08T11:52:36.922Z,84.80
2023-07-08T11:55:30.995Z,85.10
2023-07-08T11:58:01.357Z,87.00
2023-07-08T12:00:35.690Z,89.40
2023-07-08T12:03:21.977Z,89.80
2023-07-08T12:05:49.328Z,89.60
2023-07-08T12:08:19.728Z,89.90
2023-07-08T12:10:52.842Z,89.40
2023-07-08T12:13:24.253Z,90.30
2023-07-08T12:15:52.112Z,92.40
2023-07-08T12:18:23.707Z,86.70
2023-07-08T12:20:55.685Z,85.30
2023-07-08T12:23:24.942Z,86.20
2023-07-08T12:25:53.340Z,80.80
2023-07-08T12:28:22.061Z,73.90
2023-07-08T12:30:50.221Z,71.70
2023-07-08T12:33:38.188Z,77.50
2023-07-08T12:36:06.208Z,76.60
2023-07-08T12:38:38.709Z,78.50
2023-07-08T12:41:15.644Z,78.00
2023-07-08T12:43:42.886Z,78.50
2023-07-08T12:46:14.213Z,78.30
2023-07-08T12:48:41.940Z,76.80
2023-07-08T12:51:24.628Z,78.90
2023-07-08T12:53:53.751Z,77.20
2023-07-08T12:56:24.433Z,79.80
2023-07-08T12:58:54.604Z,75.20
2023-07-08T13:01:28.162Z,72.60
2023-07-08T13:04:00.964Z,72.00
2023-07-08T13:06:32.043Z,67.10
2023-07-08T13:09:29.583Z,70.30
2023-07-08T13:11:58.566Z,70.20
2023-07-08T13:14:26.690Z,71.60
2023-07-08T13:16:54.590Z,71.40
2023-07-08T13:19:23.314Z,71.00
2023-07-08T13:21:52.201Z,70.90
2023-07-08T13:24:20.673Z,70.50
2023-07-08T13:26:50.189Z,69.20
2023-07-08T13:29:19.888Z,68.40
2023-07-08T13:31:54.886Z,71.50
2023-07-08T13:34:25.630Z,65.50
2023-07-08T13:53:47.383Z,64.80
2023-07-08T13:56:16.881Z,63.90
2023-07-08T13:58:46.209Z,64.10
2023-07-08T14:01:23.058Z,61.80
2023-07-08T14:03:52.150Z,62.00
2023-07-08T14:06:25.950Z,60.00
2023-07-08T14:08:57.526Z,57.40
2023-07-08T14:11:24.662Z,59.30
2023-07-08T14:13:52.727Z,57.20
2023-07-08T14:16:28.650Z,55.60
2023-07-08T14:19:00.863Z,57.60
2023-07-08T14:21:28.220Z,58.80
2023-07-08T14:23:55.545Z,59.60
2023-07-08T14:26:22.908Z,60.80
2023-07-08T14:28:50.623Z,62.80
2023-07-08T14:31:26.203Z,63.60
2023-07-08T14:34:07.153Z,64.50
2023-07-08T14:36:35.162Z,65.00
2023-07-08T14:39:10.024Z,66.10
2023-07-08T14:41:37.299Z,66.30
2023-07-08T14:44:20.404Z,67.40
2023-07-08T14:46:49.236Z,68.30
2023-07-08T14:49:18.389Z,68.60
2023-07-08T14:51:45.791Z,66.90
2023-07-08T14:54:13.549Z,65.20
2023-07-08T14:56:42.581Z,64.20
2023-07-08T14:59:19.242Z,64.40
2023-07-08T15:01:46.836Z,66.30
2023-07-08T15:04:16.649Z,67.10
2023-07-08T15:06:45.638Z,65.70
2023-07-08T15:09:14.974Z,65.60
2023-07-08T15:11:43.324Z,67.30
2023-07-08T15:14:21.285Z,68.90
2023-07-08T15:16:49.743Z,65.30
2023-07-08T15:19:17.013Z,63.20
2023-07-08T15:21:44.390Z,61.90
2023-07-08T15:24:14.513Z,62.10
2023-07-08T15:26:44.928Z,64.60
2023-07-08T15:29:21.404Z,62.00
2023-07-08T15:31:49.333Z,59.70
2023-07-08T15:34:19.459Z,60.10
2023-07-08T15:36:46.987Z,60.60
2023-07-08T15:39:14.941Z,61.60
2023-07-08T15:41:43.445Z,63.70
2023-07-08T15:44:14.831Z,64.30
2023-07-08T15:46:52.881Z,66.60
2023-07-08T15:49:28.510Z,67.90
2023-07-08T15:51:55.804Z,68.50
2023-07-08T15:54:23.076Z,69.40
2023-07-08T15:56:53.009Z,69.80
2023-07-08T15:59:27.800Z,69.70
2023-07-08T16:01:55.404Z,73.10
2023-07-08T16:04:30.047Z,69.80
2023-07-08T16:06:57.286Z,67.60
2023-07-08T16:09:24.493Z,67.30
2023-07-08T16:11:52.453Z,67.60
2023-07-08T16:14:20.361Z,67.20
2023-07-08T16:16:47.692Z,67.70
2023-07-08T16:19:16.125Z,68.60
2023-07-08T16:21:43.716Z,68.80
2023-07-08T16:24:10.919Z,70.30
2023-07-08T16:26:40.256Z,66.60
2023-07-08T16:29:09.248Z,64.10
2023-07-08T16:31:36.530Z,61.30
2023-07-08T16:34:05.393Z,60.30
2023-07-08T16:36:32.689Z,59.30
2023-07-08T16:39:02.232Z,58.80
2023-07-08T16:41:36.753Z,58.20
2023-07-08T16:44:11.351Z,59.50
2023-07-08T16:46:38.634Z,60.60
2023-07-08T16:49:05.961Z,62.60
2023-07-08T16:51:36.018Z,63.50
2023-07-08T16:54:18.072Z,63.80
2023-07-08T16:56:46.761Z,62.30
2023-07-08T16:59:15.468Z,61.40
2023-07-08T17:01:43.991Z,59.80
2023-07-08T17:04:15.133Z,59.90
2023-07-08T17:06:43.039Z,59.60
2023-07-08T17:09:12.275Z,60.30
2023-07-08T17:11:39.950Z,60.60
2023-07-08T17:14:09.269Z,62.00
2023-07-08T17:16:38.072Z,62.00
2023-07-08T17:19:05.869Z,61.00
2023-07-08T17:21:33.146Z,60.80
2023-07-08T17:24:00.376Z,61.00
2023-07-08T17:26:27.682Z,59.60
2023-07-08T17:28:54.930Z,59.20
2023-07-08T17:33:57.583Z,59.70
2023-07-08T17:36:38.156Z,59.50
2023-07-08T17:39:05.608Z,59.00
2023-07-08T17:41:32.871Z,61.00
2023-07-08T17:44:00.325Z,61.20
2023-07-08T17:46:30.780Z,62.60
2023-07-08T17:48:59.886Z,63.90
2023-07-08T17:51:36.145Z,64.20
2023-07-08T17:54:03.906Z,65.60
2023-07-08T17:56:34.025Z,65.60
2023-07-08T17:59:02.998Z,66.70
2023-07-08T18:01:30.980Z,67.00
2023-07-08T18:03:58.519Z,67.90
2023-07-08T18:06:25.815Z,69.20
2023-07-08T18:08:53.770Z,68.50
2023-07-08T18:11:23.282Z,69.60
2023-07-08T18:13:52.671Z,69.20
2023-07-08T18:16:21.754Z,69.60
2023-07-08T18:18:49.011Z,69.90
2023-07-08T18:21:22.427Z,70.50
2023-07-08T18:23:52.167Z,70.60
2023-07-08T18:26:31.941Z,71.10
2023-07-08T18:28:59.850Z,71.50
2023-07-08T18:31:33.648Z,72.20
2023-07-08T18:34:02.924Z,73.30
2023-07-08T18:36:30.427Z,74.00
2023-07-08T18:38:57.994Z,74.00
2023-07-08T18:41:41.774Z,75.80
2023-07-08T18:44:17.569Z,74.90
2023-07-08T18:46:44.754Z,75.80
2023-07-08T18:49:12.617Z,76.30
2023-07-08T18:51:42.873Z,76.90
2023-07-08T18:54:16.824Z,78.20
2023-07-08T18:56:45.793Z,79.30
2023-07-08T18:59:13.724Z,80.10
2023-07-08T19:01:45.021Z,81.20
2023-07-08T19:04:38.270Z,82.00
2023-07-08T19:07:05.522Z,82.80
2023-07-08T19:09:35.099Z,83.60
2023-07-08T19:12:02.392Z,84.40
2023-07-08T19:14:31.561Z,85.00
2023-07-08T19:16:58.788Z,85.80
2023-07-08T19:19:25.981Z,86.30
2023-07-08T19:21:55.415Z,87.30
2023-07-08T19:24:35.922Z,87.80
2023-07-08T19:27:05.187Z,88.70
2023-07-08T19:29:32.482Z,89.40
2023-07-08T19:31:59.656Z,89.80
2023-07-08T19:34:26.909Z,90.40
2023-07-08T19:36:55.472Z,90.70
2023-07-08T19:39:22.594Z,90.80
2023-07-08T19:41:49.836Z,91.10
2023-07-08T19:44:23.837Z,91.40
2023-07-08T19:46:51.102Z,91.20
2023-07-08T19:49:18.556Z,91.40
2023-07-08T19:51:45.949Z,91.50
2023-07-08T19:54:13.051Z,91.70
2023-07-08T19:56:40.170Z,91.80
2023-07-08T19:59:14.627Z,92.00
2023-07-08T20:01:42.155Z,92.00
2023-07-08T20:04:09.485Z,92.00
2023-07-08T20:06:36.777Z,92.30
2023-07-08T20:09:04.489Z,92.30
2023-07-08T20:11:31.723Z,92.30
2023-07-08T20:13:59.114Z,92.30
2023-07-08T20:16:29.970Z,92.30
2023-07-08T20:18:57.864Z,92.30
2023-07-08T20:21:26.506Z,92.20
2023-07-08T20:23:54.470Z,92.40
2023-07-08T20:26:37.635Z,92.30
2023-07-08T20:29:06.496Z,92.40
2023-07-08T20:31:34.438Z,92.50
2023-07-08T20:34:01.824Z,92.50
2023-07-08T20:36:29.755Z,92.60
2023-07-08T20:38:57.291Z,92.60
2023-07-08T20:41:24.579Z,92.50
2023-07-08T20:43:51.907Z,92.40
2023-07-08T20:46:26.621Z,92.20
2023-07-08T20:48:57.053Z,92.20
2023-07-08T20:51:25.493Z,92.10
2023-07-08T20:53:54.499Z,92.10
2023-07-08T20:56:32.810Z,92.10
2023-07-08T20:59:01.426Z,92.20
2023-07-08T21:01:33.395Z,92.30
2023-07-08T21:04:01.896Z,92.50
2023-07-08T21:06:33.394Z,92.50
2023-07-08T21:09:01.190Z,92.60
2023-07-08T21:11:28.362Z,92.80
2023-07-08T21:13:56.527Z,93.00
2023-07-08T21:16:26.602Z,93.20
2023-07-08T21:18:55.206Z,93.50
2023-07-08T21:21:23.417Z,94.10
2023-07-08T21:23:51.066Z,94.00
2023-07-08T21:26:26.264Z,94.20
2023-07-08T21:28:56.690Z,94.30
2023-07-08T21:31:24.508Z,94.40
2023-07-08T21:33:51.950Z,94.30
2023-07-08T21:36:21.865Z,94.50
2023-07-08T21:38:49.199Z,94.50
2023-07-08T21:41:16.473Z,94.50
2023-07-08T21:43:43.684Z,94.50
2023-07-08T21:46:12.698Z,94.60
2023-07-08T21:48:40.082Z,94.70
2023-07-08T21:51:29.395Z,94.80
2023-07-08T21:53:58.510Z,94.80
2023-07-08T21:56:26.527Z,95.00
2023-07-08T21:58:54.209Z,95.10
2023-07-08T22:01:26.270Z,95.10
2023-07-08T22:03:54.257Z,95.10
2023-07-08T22:06:22.499Z,95.20
2023-07-08T22:08:49.883Z,95.40
2023-07-08T22:11:28.405Z,95.50
2023-07-08T22:13:57.814Z,95.60
2023-07-08T22:16:26.367Z,95.70
2023-07-08T22:18:55.603Z,95.80
2023-07-08T22:21:31.849Z,95.90
2023-07-08T22:24:05.126Z,96.00
2023-07-08T22:26:36.896Z,96.20
2023-07-08T22:29:04.414Z,96.20
2023-07-08T22:31:34.787Z,96.50
2023-07-08T22:34:03.724Z,96.50
2023-07-08T22:36:31.049Z,96.60
2023-07-08T22:39:06.712Z,96.70
2023-07-08T22:41:42.150Z,96.70
2023-07-08T22:44:14.017Z,96.80
2023-07-08T22:46:41.944Z,96.80
2023-07-08T22:49:09.467Z,97.00
2023-07-08T22:51:43.632Z,97.10
2023-07-08T22:54:15.594Z,97.20
2023-07-08T22:56:43.153Z,97.30
2023-07-08T22:59:10.548Z,97.40
2023-07-08T23:01:37.829Z,97.40
2023-07-08T23:04:05.639Z,97.80
2023-07-08T23:06:33.017Z,98.00
2023-07-08T23:09:00.270Z,98.10
2023-07-08T23:11:27.451Z,98.30
2023-07-08T23:13:54.948Z,98.50
2023-07-08T23:16:29.061Z,98.40
2023-07-08T23:18:58.205Z,98.50
2023-07-08T23:21:26.078Z,98.70
2023-07-08T23:23:53.693Z,98.60
2023-07-08T23:26:43.958Z,98.60
2023-07-08T23:29:20.737Z,98.60
2023-07-08T23:31:49.162Z,98.80
2023-07-08T23:34:16.873Z,99.10
2023-07-08T23:36:47.533Z,99.20
2023-07-08T23:39:18.464Z,99.40
2023-07-08T23:41:46.235Z,99.70
2023-07-08T23:44:14.749Z,99.90
2023-07-08T23:46:43.880Z,99.90
2023-07-08T23:49:36.030Z,99.90
2023-07-08T23:52:04.498Z,99.90
2023-07-08T23:54:35.568Z,99.90
2023-07-08T23:57:05.453Z,99.90
2023-07-08T23:59:36.964Z,99.90
